Time;durP1;ratioP1;P1;durP2;ratioP2;P2;SDS_P1;SDS_P2;PMS_P1;PMS_P2;Temp;Humidity;BMP_temperature;BMP_pressure;BME280_temperature;BME280_humidity;BME280_pressure;Samples;Min_cycle;Max_cycle;Signal;HPM_P1;HPM_P2
2022/08/01 00:02:09;;;;;;;5.57;3.17;;;;;;;;;;5045655;28;20046;-76
2022/08/01 00:04:34;;;;;;;4.15;2.47;;;;;;;;;;5033239;28;20467;-77
2022/08/01 00:07:00;;;;;;;3.40;2.40;;;;;;;;;;5035081;28;20009;-77
2022/08/01 00:09:25;;;;;;;3.25;2.85;;;;;;;;;;5049445;28;20816;-76
2022/08/01 00:11:50;;;;;;;4.87;2.63;;;;;;;;;;5035352;28;20046;-77
2022/08/01 00:14:15;;;;;;;3.63;2.35;;;;;;;;;;5032607;28;20321;-77
2022/08/01 00:16:40;;;;;;;3.60;2.10;;;;;;;;;;5034813;28;20437;-76
2022/08/01 00:19:06;;;;;;;2.78;2.58;;;;;;;;;;5034145;28;20033;-76
2022/08/01 00:21:31;;;;;;;3.97;2.92;;;;;;;;;;5040829;28;20029;-74
2022/08/01 00:23:56;;;;;;;3.28;2.60;;;;;;;;;;5033329;28;20025;-74
2022/08/01 00:26:21;;;;;;;3.83;2.90;;;;;;;;;;5034214;28;20034;-75
2022/08/01 00:28:47;;;;;;;4.95;3.83;;;;;;;;;;5050054;28;20271;-77
2022/08/01 00:31:12;;;;;;;3.40;2.85;;;;;;;;;;5020918;28;20034;-77
2022/08/01 00:33:37;;;;;;;4.50;2.93;;;;;;;;;;5033381;28;20021;-77
2022/08/01 00:36:02;;;;;;;4.30;2.70;;;;;;;;;;5033089;28;20792;-77
2022/08/01 00:38:28;;;;;;;4.10;2.78;;;;;;;;;;5032346;28;20025;-75
2022/08/01 00:40:53;;;;;;;2.53;2.10;;;;;;;;;;5033594;28;20025;-77
2022/08/01 00:43:18;;;;;;;7.95;3.72;;;;;;;;;;5032871;28;20056;-77
2022/08/01 00:45:46;;;;;;;4.82;2.80;;;;;;;;;;5034723;28;20482;-75
2022/08/01 00:48:12;;;;;;;5.60;3.67;;;;;;;;;;5034373;28;20037;-77
2022/08/01 00:50:37;;;;;;;5.70;3.40;;;;;;;;;;5033380;28;20018;-78
2022/08/01 00:53:03;;;;;;;6.18;3.38;;;;;;;;;;5034372;28;20527;-78
2022/08/01 00:55:28;;;;;;;5.07;2.88;;;;;;;;;;5043604;28;20021;-75
2022/08/01 00:57:54;;;;;;;6.72;3.88;;;;;;;;;;5042799;28;20115;-78
2022/08/01 01:00:19;;;;;;;4.78;3.65;;;;;;;;;;5034046;28;20080;-77
2022/08/01 01:02:44;;;;;;;5.50;2.72;;;;;;;;;;5033174;28;20057;-78
2022/08/01 01:05:10;;;;;;;5.18;3.83;;;;;;;;;;5033808;28;20087;-76
2022/08/01 01:08:02;;;;;;;5.10;3.15;;;;;;;;;;5034173;28;20406;-78
2022/08/01 01:10:36;;;;;;;5.57;3.40;;;;;;;;;;5029902;28;20109;-75
2022/08/01 01:13:04;;;;;;;6.30;4.03;;;;;;;;;;5034734;28;20023;-78
2022/08/01 01:15:47;;;;;;;6.25;3.50;;;;;;;;;;5050174;28;20493;-75
2022/08/01 01:18:12;;;;;;;;;;;;;;;;;;5033943;28;20087;-76
2022/08/01 01:20:39;;;;;;;5.63;3.15;;;;;;;;;;5048927;28;19909;-75
2022/08/01 01:23:05;;;;;;;5.80;4.18;;;;;;;;;;5049324;28;20017;-76
2022/08/01 01:25:41;;;;;;;5.47;3.03;;;;;;;;;;5048721;28;20516;-78
2022/08/01 01:28:14;;;;;;;6.55;3.75;;;;;;;;;;5033627;28;20270;-78
2022/08/01 01:30:42;;;;;;;5.15;3.75;;;;;;;;;;5033699;28;20018;-76
2022/08/01 01:33:09;;;;;;;5.47;3.63;;;;;;;;;;5031768;28;20470;-78
2022/08/01 01:35:36;;;;;;;5.70;3.42;;;;;;;;;;5034148;28;20450;-78
2022/08/01 01:38:07;;;;;;;8.27;4.72;;;;;;;;;;5031520;28;20057;-75
2022/08/01 01:40:32;;;;;;;9.95;4.38;;;;;;;;;;5031926;28;20021;-78
2022/08/01 01:42:58;;;;;;;4.07;3.30;;;;;;;;;;5032517;28;20029;-76
2022/08/01 01:45:24;;;;;;;7.45;3.00;;;;;;;;;;5033160;28;20021;-78
2022/08/01 01:47:49;;;;;;;7.53;3.20;;;;;;;;;;5031884;28;20457;-75
2022/08/01 01:50:15;;;;;;;7.75;3.67;;;;;;;;;;5032613;28;20025;-75
2022/08/01 01:52:42;;;;;;;6.35;3.15;;;;;;;;;;5032353;28;20037;-75
2022/08/01 01:55:08;;;;;;;4.60;2.80;;;;;;;;;;5035944;28;20032;-75
2022/08/01 01:57:35;;;;;;;6.05;3.10;;;;;;;;;;5052871;28;20075;-78
2022/08/01 02:00:01;;;;;;;4.38;2.95;;;;;;;;;;5041171;28;20028;-76
2022/08/01 02:02:26;;;;;;;3.65;2.70;;;;;;;;;;5031112;28;20045;-74
2022/08/01 02:04:53;;;;;;;3.13;2.45;;;;;;;;;;5032830;28;20029;-77
2022/08/01 02:07:19;;;;;;;4.20;3.05;;;;;;;;;;5033089;28;20374;-78
2022/08/01 02:09:45;;;;;;;4.68;2.58;;;;;;;;;;5029666;28;20393;-75
2022/08/01 02:12:11;;;;;;;3.05;2.60;;;;;;;;;;5032382;28;20077;-78
2022/08/01 02:14:37;;;;;;;4.63;3.28;;;;;;;;;;5049840;28;20037;-75
2022/08/01 02:17:05;;;;;;;4.60;2.78;;;;;;;;;;5052878;28;20406;-75
2022/08/01 02:19:32;;;;;;;3.10;2.63;;;;;;;;;;5035971;28;20029;-75
2022/08/01 02:22:04;;;;;;;4.68;2.72;;;;;;;;;;5032763;28;20041;-78
2022/08/01 02:24:42;;;;;;;4.97;2.70;;;;;;;;;;5018104;28;20013;-77
2022/08/01 02:27:15;;;;;;;2.53;2.10;;;;;;;;;;5013015;28;20026;-78
2022/08/01 02:29:42;;;;;;;4.28;2.05;;;;;;;;;;5013264;28;20017;-76
2022/08/01 02:32:14;;;;;;;2.92;2.45;;;;;;;;;;5012084;28;20454;-77
2022/08/01 02:34:40;;;;;;;4.78;2.38;;;;;;;;;;5013775;28;20393;-77
2022/08/01 02:37:06;;;;;;;2.78;1.95;;;;;;;;;;5013825;28;20026;-74
2022/08/01 02:39:31;;;;;;;3.40;2.35;;;;;;;;;;5012595;28;20040;-75
2022/08/01 02:42:00;;;;;;;2.65;1.85;;;;;;;;;;5011893;28;20548;-74
2022/08/01 02:44:28;;;;;;;2.15;1.75;;;;;;;;;;5032165;28;20037;-77
2022/08/01 02:47:01;;;;;;;3.28;2.42;;;;;;;;;;5030792;28;20021;-77
2022/08/01 02:49:29;;;;;;;2.35;1.95;;;;;;;;;;5046908;28;20038;-77
2022/08/01 02:51:55;;;;;;;3.38;2.30;;;;;;;;;;5016466;28;20072;-74
2022/08/01 02:54:22;;;;;;;4.78;2.35;;;;;;;;;;5018252;28;20112;-74
2022/08/01 02:56:48;;;;;;;2.67;2.05;;;;;;;;;;5030955;28;20021;-78
2022/08/01 02:59:16;;;;;;;3.58;2.03;;;;;;;;;;5031545;28;20041;-77
2022/08/01 03:01:42;;;;;;;2.72;2.28;;;;;;;;;;5031013;28;20033;-78
2022/08/01 03:04:11;;;;;;;3.72;2.33;;;;;;;;;;5030423;28;20409;-78
2022/08/01 03:06:38;;;;;;;2.65;2.15;;;;;;;;;;5046584;28;20120;-76
2022/08/01 03:09:03;;;;;;;2.75;2.15;;;;;;;;;;5031402;28;20029;-79
2022/08/01 03:11:30;;;;;;;4.55;2.38;;;;;;;;;;5047802;28;20561;-78
2022/08/01 03:13:55;;;;;;;2.70;1.90;;;;;;;;;;5041398;28;20040;-76
2022/08/01 03:16:21;;;;;;;3.75;1.90;;;;;;;;;;5051152;28;20021;-78
2022/08/01 03:18:48;;;;;;;3.25;2.75;;;;;;;;;;5031168;28;20079;-77
2022/08/01 03:21:14;;;;;;;3.00;1.67;;;;;;;;;;5037755;28;20116;-77
2022/08/01 03:23:40;;;;;;;3.88;1.88;;;;;;;;;;5051626;28;20120;-77
2022/08/01 03:26:05;;;;;;;2.55;1.70;;;;;;;;;;5050767;28;20040;-77
2022/08/01 03:28:31;;;;;;;2.50;2.00;;;;;;;;;;5036118;28;20478;-77
2022/08/01 03:30:58;;;;;;;4.50;2.40;;;;;;;;;;5035670;28;20112;-75
2022/08/01 03:33:23;;;;;;;3.85;2.05;;;;;;;;;;5027684;28;20021;-77
2022/08/01 03:35:55;;;;;;;3.60;2.22;;;;;;;;;;5034068;28;20025;-78
2022/08/01 03:38:23;;;;;;;3.15;2.30;;;;;;;;;;5050837;28;20030;-75
2022/08/01 03:41:08;;;;;;;3.80;1.90;;;;;;;;;;5035712;28;20022;-77
2022/08/01 03:43:39;;;;;;;2.83;2.13;;;;;;;;;;5032712;28;20029;-76
2022/08/01 03:46:07;;;;;;;4.05;3.08;;;;;;;;;;5035399;28;20043;-77
2022/08/01 03:48:36;;;;;;;5.57;3.60;;;;;;;;;;5035349;28;20473;-78
2022/08/01 03:51:01;;;;;;;6.50;3.20;;;;;;;;;;5034800;28;20104;-74
2022/08/01 03:53:29;;;;;;;3.58;2.25;;;;;;;;;;5034984;28;20170;-75
2022/08/01 03:55:55;;;;;;;3.47;2.30;;;;;;;;;;5034980;28;20021;-77
2022/08/01 03:58:21;;;;;;;6.10;3.33;;;;;;;;;;5035248;28;20036;-77
2022/08/01 04:00:49;;;;;;;5.90;3.17;;;;;;;;;;5033034;28;20033;-74
2022/08/01 04:03:18;;;;;;;4.95;3.00;;;;;;;;;;5044671;28;20052;-75
2022/08/01 04:05:44;;;;;;;4.05;3.00;;;;;;;;;;5034659;28;20036;-74
2022/08/01 04:08:09;;;;;;;5.22;3.72;;;;;;;;;;5034062;28;20397;-73
2022/08/01 04:10:35;;;;;;;6.88;3.00;;;;;;;;;;5034952;28;20021;-75
2022/08/01 04:13:00;;;;;;;5.15;2.65;;;;;;;;;;5037895;28;20024;-77
2022/08/01 04:15:25;;;;;;;5.25;2.72;;;;;;;;;;5043238;28;20524;-77
2022/08/01 04:17:50;;;;;;;3.58;2.78;;;;;;;;;;5034447;28;20030;-73
2022/08/01 04:20:15;;;;;;;4.77;3.17;;;;;;;;;;5041137;28;20461;-75
2022/08/01 04:22:41;;;;;;;5.97;3.55;;;;;;;;;;5034330;28;20332;-76
2022/08/01 04:25:19;;;;;;;6.68;3.38;;;;;;;;;;5033597;28;20056;-73
2022/08/01 04:27:46;;;;;;;4.88;2.42;;;;;;;;;;5034243;28;20239;-75
2022/08/01 04:30:12;;;;;;;5.18;3.05;;;;;;;;;;5035106;28;20389;-77
2022/08/01 04:32:39;;;;;;;4.80;2.85;;;;;;;;;;5034080;28;20025;-76
2022/08/01 04:35:07;;;;;;;3.25;2.45;;;;;;;;;;5034700;28;20049;-74
2022/08/01 04:37:32;;;;;;;4.70;2.97;;;;;;;;;;5034182;28;20044;-77
2022/08/01 04:39:59;;;;;;;6.03;3.67;;;;;;;;;;5033800;28;20026;-74
2022/08/01 04:42:24;;;;;;;3.35;3.00;;;;;;;;;;5032800;28;20433;-74
2022/08/01 04:44:49;;;;;;;3.78;2.47;;;;;;;;;;5016394;28;20042;-77
2022/08/01 04:47:15;;;;;;;6.75;2.50;;;;;;;;;;5013457;28;20033;-77
2022/08/01 04:49:40;;;;;;;6.25;3.30;;;;;;;;;;5039576;28;20021;-74
2022/08/01 04:52:06;;;;;;;6.28;2.97;;;;;;;;;;5034745;28;20034;-77
2022/08/01 04:54:33;;;;;;;4.90;2.55;;;;;;;;;;5034294;28;20417;-74
2022/08/01 04:57:02;;;;;;;5.03;2.63;;;;;;;;;;5051059;28;20021;-76
2022/08/01 04:59:39;;;;;;;6.95;3.15;;;;;;;;;;5032887;28;20033;-75
2022/08/01 05:02:08;;;;;;;7.75;3.40;;;;;;;;;;5024420;28;20404;-77
2022/08/01 05:04:34;;;;;;;6.55;4.60;;;;;;;;;;5031158;28;20024;-77
2022/08/01 05:06:59;;;;;;;5.60;2.63;;;;;;;;;;5034117;28;20034;-75
2022/08/01 05:09:28;;;;;;;6.68;2.97;;;;;;;;;;5034238;28;20441;-77
2022/08/01 05:11:53;;;;;;;4.53;3.15;;;;;;;;;;5048897;28;20025;-77
2022/08/01 05:14:18;;;;;;;5.22;2.70;;;;;;;;;;5033966;28;20028;-78
2022/08/01 05:16:44;;;;;;;5.85;2.63;;;;;;;;;;5034027;28;20087;-78
2022/08/01 05:19:09;;;;;;;6.93;2.80;;;;;;;;;;5033008;28;20393;-75
2022/08/01 05:21:35;;;;;;;3.45;2.15;;;;;;;;;;5033372;28;20061;-77
2022/08/01 05:24:00;;;;;;;3.55;2.63;;;;;;;;;;5049554;28;20516;-75
2022/08/01 05:26:25;;;;;;;9.80;3.05;;;;;;;;;;5032853;28;20472;-79
2022/08/01 05:28:50;;;;;;;7.15;1.98;;;;;;;;;;5033041;28;20571;-74
2022/08/01 05:31:16;;;;;;;5.68;2.15;;;;;;;;;;5032217;28;20051;-76
2022/08/01 05:33:41;;;;;;;7.50;2.97;;;;;;;;;;5033660;28;20036;-77
2022/08/01 05:36:06;;;;;;;6.47;2.60;;;;;;;;;;5033410;28;20057;-75
2022/08/01 05:38:31;;;;;;;6.82;2.35;;;;;;;;;;5031404;28;20278;-75
2022/08/01 05:40:57;;;;;;;3.17;2.17;;;;;;;;;;5033404;28;20478;-76
2022/08/01 05:43:22;;;;;;;37.13;4.55;;;;;;;;;;5031489;28;20508;-77
2022/08/01 05:45:48;;;;;;;5.68;3.33;;;;;;;;;;5033769;28;20028;-74
2022/08/01 05:48:13;;;;;;;15.75;3.42;;;;;;;;;;5033528;28;20018;-77
2022/08/01 05:50:38;;;;;;;9.23;3.90;;;;;;;;;;5032371;28;20029;-77
2022/08/01 05:53:03;;;;;;;16.15;3.97;;;;;;;;;;5039939;28;20097;-78
2022/08/01 05:55:28;;;;;;;14.10;3.57;;;;;;;;;;5038286;28;20056;-75
2022/08/01 05:57:54;;;;;;;9.13;3.85;;;;;;;;;;5030810;28;20684;-76
2022/08/01 06:00:19;;;;;;;8.57;3.53;;;;;;;;;;5033540;28;20025;-76
2022/08/01 06:02:44;;;;;;;7.18;3.22;;;;;;;;;;5032499;28;20041;-77
2022/08/01 06:05:10;;;;;;;11.75;3.53;;;;;;;;;;5033162;28;20355;-75
2022/08/01 06:07:35;;;;;;;9.75;3.75;;;;;;;;;;5032325;28;20028;-77
2022/08/01 06:10:00;;;;;;;12.30;3.78;;;;;;;;;;5036700;28;20021;-77
2022/08/01 06:12:26;;;;;;;7.93;3.55;;;;;;;;;;5032979;28;20026;-78
2022/08/01 06:14:51;;;;;;;11.43;3.70;;;;;;;;;;5032929;28;20088;-77
2022/08/01 06:17:16;;;;;;;9.23;3.95;;;;;;;;;;5040757;28;20040;-75
2022/08/01 06:19:41;;;;;;;11.00;3.97;;;;;;;;;;5047656;28;20385;-75
2022/08/01 06:22:09;;;;;;;14.20;5.63;;;;;;;;;;5032859;28;20033;-76
2022/08/01 06:24:35;;;;;;;11.25;4.20;;;;;;;;;;5033212;28;20041;-78
2022/08/01 06:27:00;;;;;;;13.45;4.18;;;;;;;;;;5033156;28;20052;-75
2022/08/01 06:29:25;;;;;;;20.83;4.20;;;;;;;;;;5032637;28;20516;-79
2022/08/01 06:31:50;;;;;;;11.45;4.97;;;;;;;;;;5031887;28;20514;-79
2022/08/01 06:34:15;;;;;;;16.00;4.43;;;;;;;;;;5048238;28;20030;-75
2022/08/01 06:36:41;;;;;;;13.25;4.28;;;;;;;;;;5030885;28;20060;-74
2022/08/01 06:39:06;;;;;;;16.98;5.13;;;;;;;;;;5032575;28;20025;-75
2022/08/01 06:41:31;;;;;;;9.02;4.20;;;;;;;;;;5047614;28;20124;-76
2022/08/01 06:43:56;;;;;;;14.25;4.13;;;;;;;;;;5031867;28;20470;-75
2022/08/01 06:46:22;;;;;;;16.33;4.32;;;;;;;;;;5048277;28;20455;-76
2022/08/01 06:48:47;;;;;;;11.93;3.85;;;;;;;;;;5032252;28;20033;-74
2022/08/01 06:51:17;;;;;;;22.85;3.55;;;;;;;;;;5032242;28;20028;-74
2022/08/01 06:53:43;;;;;;;15.48;5.25;;;;;;;;;;5032216;28;20532;-77
2022/08/01 06:56:08;;;;;;;12.32;4.22;;;;;;;;;;5040466;28;20072;-77
2022/08/01 06:58:34;;;;;;;13.30;3.85;;;;;;;;;;5032882;28;20029;-77
2022/08/01 07:00:59;;;;;;;19.10;5.20;;;;;;;;;;5043248;28;20082;-76
2022/08/01 07:03:25;;;;;;;12.63;4.55;;;;;;;;;;5032094;28;20430;-75
2022/08/01 07:05:50;;;;;;;10.45;3.92;;;;;;;;;;5033195;28;20009;-78
2022/08/01 07:08:15;;;;;;;10.83;3.50;;;;;;;;;;5032295;28;20060;-77
2022/08/01 07:10:40;;;;;;;20.43;4.70;;;;;;;;;;5048675;28;20246;-75
2022/08/01 07:13:06;;;;;;;16.08;4.40;;;;;;;;;;5048072;28;20774;-75
2022/08/01 07:15:31;;;;;;;17.23;4.47;;;;;;;;;;5031582;28;20059;-76
2022/08/01 07:17:57;;;;;;;15.48;3.38;;;;;;;;;;5047807;28;20029;-76
2022/08/01 07:20:22;;;;;;;13.70;4.20;;;;;;;;;;5030961;28;20108;-78
2022/08/01 07:22:50;;;;;;;13.75;3.75;;;;;;;;;;5047970;28;20041;-76
2022/08/01 07:25:15;;;;;;;14.82;4.03;;;;;;;;;;5032496;28;20018;-78
2022/08/01 07:27:41;;;;;;;10.02;3.72;;;;;;;;;;5031386;28;20029;-77
2022/08/01 07:30:06;;;;;;;20.50;5.63;;;;;;;;;;5032442;28;20029;-75
2022/08/01 07:32:31;;;;;;;13.18;3.90;;;;;;;;;;5030939;28;20257;-78
2022/08/01 07:34:57;;;;;;;14.20;4.85;;;;;;;;;;5047936;28;20064;-76
2022/08/01 07:37:23;;;;;;;15.95;4.43;;;;;;;;;;5031930;28;20039;-76
2022/08/01 07:39:49;;;;;;;13.30;3.65;;;;;;;;;;5031118;28;20084;-76
2022/08/01 07:42:14;;;;;;;13.25;3.97;;;;;;;;;;5031303;28;20033;-75
2022/08/01 07:44:39;;;;;;;17.40;4.60;;;;;;;;;;5047559;28;20017;-75
2022/08/01 07:47:05;;;;;;;11.80;4.15;;;;;;;;;;5032050;28;20053;-78
2022/08/01 07:49:30;;;;;;;9.65;3.90;;;;;;;;;;5047411;28;20028;-76
2022/08/01 07:51:55;;;;;;;11.52;3.50;;;;;;;;;;5043076;28;20452;-75
2022/08/01 07:54:20;;;;;;;15.98;3.97;;;;;;;;;;5052357;28;20029;-78
2022/08/01 07:56:45;;;;;;;13.45;3.83;;;;;;;;;;5037118;28;20033;-78
2022/08/01 07:59:11;;;;;;;15.75;5.65;;;;;;;;;;5032880;28;20025;-74
2022/08/01 08:01:36;;;;;;;15.55;4.32;;;;;;;;;;5032982;28;20133;-77
2022/08/01 08:04:02;;;;;;;9.23;3.22;;;;;;;;;;5035181;28;20046;-76
2022/08/01 08:06:27;;;;;;;14.82;3.45;;;;;;;;;;5035043;28;20508;-79
2022/08/01 08:08:53;;;;;;;17.75;3.80;;;;;;;;;;5035543;28;20033;-78
2022/08/01 08:11:18;;;;;;;24.95;5.05;;;;;;;;;;5034851;28;20401;-78
2022/08/01 08:13:43;;;;;;;13.00;4.28;;;;;;;;;;5050044;28;20084;-79
2022/08/01 08:16:09;;;;;;;16.67;5.13;;;;;;;;;;5046943;28;20014;-77
2022/08/01 08:18:34;;;;;;;18.25;3.85;;;;;;;;;;5040615;28;20278;-75
2022/08/01 08:20:59;;;;;;;10.82;3.60;;;;;;;;;;5034693;28;20029;-76
2022/08/01 08:26:08;;;;;;;8.80;3.08;;;;;;;;;;5035290;28;20044;-75
2022/08/01 08:28:34;;;;;;;11.07;3.00;;;;;;;;;;5035038;28;20477;-77
2022/08/01 08:30:59;;;;;;;14.73;3.70;;;;;;;;;;5035426;28;20037;-74
2022/08/01 08:33:24;;;;;;;14.05;3.53;;;;;;;;;;5033808;28;20025;-74
2022/08/01 08:35:50;;;;;;;9.63;3.58;;;;;;;;;;5035201;28;20029;-77
2022/08/01 08:38:15;;;;;;;13.15;3.58;;;;;;;;;;5034347;28;20508;-75
2022/08/01 08:40:40;;;;;;;17.50;4.27;;;;;;;;;;5034392;28;20386;-78
2022/08/01 08:43:06;;;;;;;10.90;3.22;;;;;;;;;;5036174;28;20263;-79
2022/08/01 08:45:31;;;;;;;13.23;3.67;;;;;;;;;;5034966;28;20422;-75
2022/08/01 08:47:57;;;;;;;17.08;4.20;;;;;;;;;;5034639;28;20417;-75
2022/08/01 08:50:22;;;;;;;11.80;3.47;;;;;;;;;;5034668;28;20036;-79
2022/08/01 08:52:48;;;;;;;9.57;3.45;;;;;;;;;;5033531;28;20470;-77
2022/08/01 08:55:15;;;;;;;16.50;3.72;;;;;;;;;;5033950;28;20037;-75
2022/08/01 08:57:42;;;;;;;9.70;3.17;;;;;;;;;;5034114;28;20111;-77
2022/08/01 09:00:09;;;;;;;15.98;3.70;;;;;;;;;;5033502;28;20041;-77
2022/08/01 09:02:35;;;;;;;21.17;4.68;;;;;;;;;;5032942;28;20050;-79
2022/08/01 09:05:01;;;;;;;11.38;3.60;;;;;;;;;;5034301;28;20044;-77
2022/08/01 09:07:26;;;;;;;12.00;3.30;;;;;;;;;;5033004;28;20025;-77
2022/08/01 09:09:51;;;;;;;13.85;3.53;;;;;;;;;;5032371;28;20097;-77
2022/08/01 09:12:17;;;;;;;11.43;3.47;;;;;;;;;;5034536;28;20028;-75
2022/08/01 09:14:46;;;;;;;23.38;6.50;;;;;;;;;;5032626;28;20051;-78
2022/08/01 09:17:12;;;;;;;13.93;3.22;;;;;;;;;;5035719;28;20543;-75
2022/08/01 09:19:41;;;;;;;14.70;3.55;;;;;;;;;;5034518;28;20017;-75
2022/08/01 09:22:08;;;;;;;16.48;3.60;;;;;;;;;;5029618;28;20026;-77
2022/08/01 09:24:34;;;;;;;13.77;3.17;;;;;;;;;;5034164;28;20536;-75
2022/08/01 09:26:59;;;;;;;17.13;3.50;;;;;;;;;;5014029;28;20029;-75
2022/08/01 09:29:26;;;;;;;8.40;2.83;;;;;;;;;;5028610;28;20101;-78
2022/08/01 09:31:52;;;;;;;10.23;3.05;;;;;;;;;;5033085;28;20025;-77
2022/08/01 09:34:26;;;;;;;11.48;2.95;;;;;;;;;;5049056;28;20108;-77
2022/08/01 09:36:52;;;;;;;9.20;3.83;;;;;;;;;;5038425;28;20034;-74
2022/08/01 09:39:21;;;;;;;8.43;3.38;;;;;;;;;;5033041;28;20055;-75
2022/08/01 09:41:47;;;;;;;13.98;3.30;;;;;;;;;;5047676;28;20040;-77
2022/08/01 09:44:17;;;;;;;14.45;3.65;;;;;;;;;;5030090;28;20073;-77
2022/08/01 09:46:53;;;;;;;12.90;3.47;;;;;;;;;;5017388;28;20017;-75
2022/08/01 09:49:29;;;;;;;14.70;4.07;;;;;;;;;;5034117;28;20033;-77
2022/08/01 09:51:55;;;;;;;11.98;3.47;;;;;;;;;;5035426;28;20087;-74
2022/08/01 09:54:30;;;;;;;14.43;3.78;;;;;;;;;;5033994;28;20025;-78
2022/08/01 09:57:08;;;;;;;11.32;3.10;;;;;;;;;;5039270;28;20029;-78
2022/08/01 09:59:40;;;;;;;12.20;3.60;;;;;;;;;;5034094;28;20053;-76
2022/08/01 10:02:05;;;;;;;16.60;4.57;;;;;;;;;;5031569;28;20041;-78
2022/08/01 10:04:30;;;;;;;11.82;3.65;;;;;;;;;;5032853;28;20028;-75
2022/08/01 10:07:03;;;;;;;14.50;3.25;;;;;;;;;;5032093;28;20533;-76
2022/08/01 10:09:29;;;;;;;16.77;3.70;;;;;;;;;;5033326;28;20033;-76
2022/08/01 10:11:56;;;;;;;9.05;2.72;;;;;;;;;;5033390;28;20017;-78
2022/08/01 10:14:23;;;;;;;10.23;3.65;;;;;;;;;;5033309;28;20512;-77
2022/08/01 10:16:49;;;;;;;14.18;3.55;;;;;;;;;;5033458;28;20040;-75
2022/08/01 10:19:15;;;;;;;9.40;3.80;;;;;;;;;;5033441;28;20385;-76
2022/08/01 10:21:40;;;;;;;9.13;3.20;;;;;;;;;;5032340;28;20477;-75
2022/08/01 10:24:07;;;;;;;14.52;3.53;;;;;;;;;;5033398;28;20029;-78
2022/08/01 10:26:33;;;;;;;10.75;3.85;;;;;;;;;;5032680;28;20069;-78
2022/08/01 10:28:59;;;;;;;12.05;3.63;;;;;;;;;;5032226;28;20083;-75
2022/08/01 10:31:24;;;;;;;8.35;3.08;;;;;;;;;;5033796;28;20017;-75
2022/08/01 10:33:53;;;;;;;12.65;3.80;;;;;;;;;;5031416;28;20036;-76
2022/08/01 10:36:19;;;;;;;20.65;3.70;;;;;;;;;;5033174;28;20025;-75
2022/08/01 10:38:45;;;;;;;11.43;4.47;;;;;;;;;;5032635;28;20025;-78
2022/08/01 10:41:12;;;;;;;14.93;3.92;;;;;;;;;;5047788;28;20025;-76
2022/08/01 10:43:37;;;;;;;9.50;2.88;;;;;;;;;;5031872;28;20100;-78
2022/08/01 10:46:11;;;;;;;9.35;2.78;;;;;;;;;;5033640;28;20025;-77
2022/08/01 10:48:47;;;;;;;7.07;3.08;;;;;;;;;;5032233;28;20032;-78
2022/08/01 10:51:15;;;;;;;9.40;2.45;;;;;;;;;;5031895;28;20029;-75
2022/08/01 10:53:46;;;;;;;9.55;3.30;;;;;;;;;;5033011;28;20017;-75
2022/08/01 10:56:11;;;;;;;7.38;2.95;;;;;;;;;;5031147;28;20029;-77
2022/08/01 10:58:37;;;;;;;7.60;2.40;;;;;;;;;;5048193;28;20018;-77
2022/08/01 11:01:14;;;;;;;11.20;3.20;;;;;;;;;;5033039;28;20262;-75
2022/08/01 11:03:40;;;;;;;20.00;4.28;;;;;;;;;;5032551;28;20129;-76
2022/08/01 11:06:06;;;;;;;10.38;3.38;;;;;;;;;;5017961;28;20026;-77
2022/08/01 11:08:34;;;;;;;6.82;2.53;;;;;;;;;;5032820;28;20100;-77
2022/08/01 11:11:01;;;;;;;11.27;2.47;;;;;;;;;;5024734;28;20114;-75
2022/08/01 11:13:45;;;;;;;8.82;2.53;;;;;;;;;;5023247;28;20018;-74
2022/08/01 11:16:26;;;;;;;7.28;2.47;;;;;;;;;;5032475;28;20174;-78
2022/08/01 11:18:51;;;;;;;6.10;2.08;;;;;;;;;;5032237;28;20028;-78
2022/08/01 11:21:18;;;;;;;8.35;2.40;;;;;;;;;;5032049;28;20037;-77
2022/08/01 11:23:47;;;;;;;5.80;2.30;;;;;;;;;;5032242;28;20049;-75
2022/08/01 11:26:13;;;;;;;12.68;2.67;;;;;;;;;;5032115;28;20537;-76
2022/08/01 11:28:39;;;;;;;11.55;2.78;;;;;;;;;;5030988;28;20083;-75
2022/08/01 11:31:07;;;;;;;5.60;2.13;;;;;;;;;;5032857;28;20017;-75
2022/08/01 11:33:41;;;;;;;22.55;3.55;;;;;;;;;;5036016;28;20029;-76
2022/08/01 11:36:10;;;;;;;11.35;3.05;;;;;;;;;;5034744;28;20065;-76
2022/08/01 11:38:35;;;;;;;7.20;2.80;;;;;;;;;;5036670;28;20022;-78
2022/08/01 11:41:14;;;;;;;13.07;3.53;;;;;;;;;;5051096;28;20067;-77
2022/08/01 11:43:58;;;;;;;8.50;2.38;;;;;;;;;;5033426;28;20029;-78
2022/08/01 11:46:42;;;;;;;9.18;3.83;;;;;;;;;;5051352;28;20021;-79
2022/08/01 11:49:25;;;;;;;5.28;2.30;;;;;;;;;;5035874;28;20051;-79
2022/08/01 11:52:03;;;;;;;7.63;2.22;;;;;;;;;;5029884;28;20116;-79
2022/08/01 11:54:29;;;;;;;7.88;2.13;;;;;;;;;;5036033;28;20389;-77
2022/08/01 11:56:55;;;;;;;7.32;2.78;;;;;;;;;;5028433;28;20021;-76
2022/08/01 11:59:22;;;;;;;6.63;2.67;;;;;;;;;;5036526;28;20579;-78
2022/08/01 12:01:47;;;;;;;8.55;2.30;;;;;;;;;;5034415;28;20056;-76
2022/08/01 12:04:13;;;;;;;10.23;2.20;;;;;;;;;;5035207;28;20108;-77
2022/08/01 12:06:38;;;;;;;8.30;2.10;;;;;;;;;;5034354;28;20032;-78
2022/08/01 12:09:17;;;;;;;7.60;2.50;;;;;;;;;;5051369;28;20326;-76
2022/08/01 12:11:42;;;;;;;7.07;2.33;;;;;;;;;;5034107;28;20037;-76
2022/08/01 12:14:07;;;;;;;4.63;2.10;;;;;;;;;;5034579;28;20025;-77
2022/08/01 12:16:32;;;;;;;4.72;1.90;;;;;;;;;;5035504;28;20041;-76
2022/08/01 12:18:58;;;;;;;5.25;1.83;;;;;;;;;;5034306;28;20033;-75
2022/08/01 12:21:23;;;;;;;7.32;2.20;;;;;;;;;;5034988;28;20091;-75
2022/08/01 12:24:00;;;;;;;20.87;3.63;;;;;;;;;;5050874;28;20543;-75
2022/08/01 12:26:38;;;;;;;11.70;2.88;;;;;;;;;;5035613;28;20292;-77
2022/08/01 12:29:03;;;;;;;8.75;2.30;;;;;;;;;;5035813;28;20037;-75
2022/08/01 12:31:38;;;;;;;10.60;2.33;;;;;;;;;;5033481;28;20030;-79
2022/08/01 12:34:22;;;;;;;14.02;3.00;;;;;;;;;;5035394;28;20393;-77
2022/08/01 12:36:47;;;;;;;4.43;1.50;;;;;;;;;;5034957;28;20121;-77
2022/08/01 12:39:12;;;;;;;6.07;1.83;;;;;;;;;;5035545;28;20057;-78
2022/08/01 12:41:37;;;;;;;51.17;6.05;;;;;;;;;;5033608;28;20064;-78
2022/08/01 12:44:03;;;;;;;9.23;2.50;;;;;;;;;;5034771;28;20026;-79
2022/08/01 12:46:28;;;;;;;8.30;1.80;;;;;;;;;;5033540;28;20030;-78
2022/08/01 12:48:56;;;;;;;7.53;1.90;;;;;;;;;;5034889;28;20040;-75
2022/08/01 12:51:25;;;;;;;6.45;1.90;;;;;;;;;;5049623;28;20412;-78
2022/08/01 12:53:53;;;;;;;5.97;1.58;;;;;;;;;;5048266;28;20014;-77
2022/08/01 12:56:30;;;;;;;5.57;1.77;;;;;;;;;;5042540;28;20386;-78
2022/08/01 12:58:56;;;;;;;11.23;2.70;;;;;;;;;;5051630;28;20036;-78
2022/08/01 13:01:24;;;;;;;8.05;2.03;;;;;;;;;;5050737;28;20014;-77
2022/08/01 13:04:00;;;;;;;6.43;1.77;;;;;;;;;;5034709;28;20050;-76
2022/08/01 13:06:28;;;;;;;7.40;2.47;;;;;;;;;;5035032;28;20032;-78
2022/08/01 13:09:06;;;;;;;6.18;1.85;;;;;;;;;;5049693;28;20409;-77
2022/08/01 13:11:31;;;;;;;6.32;2.13;;;;;;;;;;5033972;28;20025;-75
2022/08/01 13:13:56;;;;;;;6.30;2.22;;;;;;;;;;5036337;28;20025;-76
2022/08/01 13:16:23;;;;;;;5.05;1.60;;;;;;;;;;5054837;28;20052;-78
2022/08/01 13:18:53;;;;;;;4.97;1.70;;;;;;;;;;5042675;28;20469;-77
2022/08/01 13:21:25;;;;;;;8.13;2.33;;;;;;;;;;5034613;28;20037;-77
2022/08/01 13:24:01;;;;;;;5.35;1.60;;;;;;;;;;5049575;28;20036;-76
2022/08/01 13:26:44;;;;;;;2.65;1.60;;;;;;;;;;5015755;28;20029;-78
2022/08/01 13:29:11;;;;;;;7.55;2.08;;;;;;;;;;5033974;28;20033;-79
2022/08/01 13:31:37;;;;;;;4.85;1.50;;;;;;;;;;5026766;28;20119;-78
2022/08/01 13:34:02;;;;;;;7.75;3.85;;;;;;;;;;5026379;28;20060;-77
2022/08/01 13:36:31;;;;;;;4.68;1.70;;;;;;;;;;5033145;28;20029;-77
2022/08/01 13:41:44;;;;;;;6.35;1.92;;;;;;;;;;5021054;28;20037;-78
2022/08/01 13:44:10;;;;;;;3.17;1.55;;;;;;;;;;5033532;28;20026;-79
2022/08/01 13:46:36;;;;;;;5.63;3.55;;;;;;;;;;5033908;28;20110;-77
2022/08/01 13:49:02;;;;;;;6.75;1.83;;;;;;;;;;5035240;28;20072;-75
2022/08/01 13:51:27;;;;;;;7.22;1.67;;;;;;;;;;5034054;28;20026;-77
2022/08/01 13:53:52;;;;;;;9.05;1.77;;;;;;;;;;5033271;28;20029;-76
2022/08/01 13:56:18;;;;;;;7.57;1.90;;;;;;;;;;5038145;28;20485;-78
2022/08/01 13:58:43;;;;;;;8.38;2.30;;;;;;;;;;5048875;28;20425;-78
2022/08/01 14:01:08;;;;;;;6.28;2.00;;;;;;;;;;5049184;28;20024;-76
2022/08/01 14:03:34;;;;;;;4.32;2.15;;;;;;;;;;5047828;28;20604;-77
2022/08/01 14:05:59;;;;;;;4.38;1.65;;;;;;;;;;5033415;28;20116;-75
2022/08/01 14:08:25;;;;;;;8.55;2.13;;;;;;;;;;5033905;28;20373;-77
2022/08/01 14:10:57;;;;;;;6.85;1.88;;;;;;;;;;5048571;28;20030;-77
2022/08/01 14:13:22;;;;;;;5.57;1.85;;;;;;;;;;5032160;28;20135;-76
2022/08/01 14:15:47;;;;;;;6.38;1.70;;;;;;;;;;5033992;28;20057;-75
2022/08/01 14:18:13;;;;;;;5.80;1.30;;;;;;;;;;5048183;28;20060;-78
2022/08/01 14:20:38;;;;;;;6.57;1.75;;;;;;;;;;5048334;28;20021;-76
2022/08/01 14:23:03;;;;;;;4.95;1.70;;;;;;;;;;5045424;28;20044;-76
2022/08/01 14:25:32;;;;;;;6.10;2.03;;;;;;;;;;5032049;28;20047;-77
2022/08/01 14:27:58;;;;;;;3.83;1.48;;;;;;;;;;5032649;28;20052;-78
2022/08/01 14:30:23;;;;;;;8.75;1.63;;;;;;;;;;5033954;28;20085;-78
2022/08/01 14:32:48;;;;;;;6.32;1.70;;;;;;;;;;5032382;28;20521;-75
2022/08/01 14:35:14;;;;;;;5.53;1.73;;;;;;;;;;5031304;28;20025;-78
2022/08/01 14:37:39;;;;;;;10.48;2.40;;;;;;;;;;5026018;28;20271;-76
2022/08/01 14:40:08;;;;;;;8.68;2.55;;;;;;;;;;5034214;28;20046;-77
2022/08/01 14:42:33;;;;;;;7.85;1.98;;;;;;;;;;5032020;28;20489;-76
2022/08/01 14:44:59;;;;;;;8.43;2.85;;;;;;;;;;5032599;28;20020;-77